sensor_id;sensor_type;location;lat;lon;timestamp;temperature;humidity
53294;DHT22;39181;53.440;5.644;2022-10-16T00:00:38;12.90;99.90
53294;DHT22;39181;53.440;5.644;2022-10-16T00:03:05;12.90;99.90
53294;DHT22;39181;53.440;5.644;2022-10-16T00:05:30;12.90;99.90
53294;DHT22;39181;53.440;5.644;2022-10-16T00:07:56;12.90;99.90
53294;DHT22;39181;53.440;5.644;2022-10-16T00:10:22;12.90;99.90
53294;DHT22;39181;53.440;5.644;2022-10-16T00:12:47;13.00;99.90
53294;DHT22;39181;53.440;5.644;2022-10-16T00:15:13;13.00;99.90
53294;DHT22;39181;53.440;5.644;2022-10-16T00:17:39;12.90;99.90
53294;DHT22;39181;53.440;5.644;2022-10-16T00:20:05;12.90;99.90
53294;DHT22;39181;53.440;5.644;2022-10-16T00:22:31;13.00;99.90
53294;DHT22;39181;53.440;5.644;2022-10-16T00:24:56;13.00;99.90
53294;DHT22;39181;53.440;5.644;2022-10-16T00:27:22;13.10;99.90
53294;DHT22;39181;53.440;5.644;2022-10-16T00:29:51;13.10;99.90
53294;DHT22;39181;53.440;5.644;2022-10-16T00:32:18;13.10;99.90
53294;DHT22;39181;53.440;5.644;2022-10-16T00:34:44;13.10;99.90
53294;DHT22;39181;53.440;5.644;2022-10-16T00:37:10;13.10;99.90
53294;DHT22;39181;53.440;5.644;2022-10-16T00:39:36;13.10;99.90
53294;DHT22;39181;53.440;5.644;2022-10-16T00:42:02;13.10;99.90
53294;DHT22;39181;53.440;5.644;2022-10-16T00:45:00;13.10;99.90
53294;DHT22;39181;53.440;5.644;2022-10-16T00:47:30;13.20;99.90
53294;DHT22;39181;53.440;5.644;2022-10-16T00:50:06;13.20;99.90
53294;DHT22;39181;53.440;5.644;2022-10-16T00:52:32;13.20;99.90
53294;DHT22;39181;53.440;5.644;2022-10-16T00:54:58;13.20;99.90
53294;DHT22;39181;53.440;5.644;2022-10-16T00:57:25;13.20;99.90
53294;DHT22;39181;53.440;5.644;2022-10-16T00:59:51;13.20;99.90
53294;DHT22;39181;53.440;5.644;2022-10-16T01:02:17;13.20;99.90
53294;DHT22;39181;53.440;5.644;2022-10-16T01:04:52;13.20;99.90
53294;DHT22;39181;53.440;5.644;2022-10-16T01:10:48;13.20;99.90
53294;DHT22;39181;53.440;5.644;2022-10-16T01:13:22;13.20;99.90
53294;DHT22;39181;53.440;5.644;2022-10-16T01:15:54;13.20;99.90
53294;DHT22;39181;53.440;5.644;2022-10-16T01:21:53;13.10;99.90
53294;DHT22;39181;53.440;5.644;2022-10-16T01:24:22;13.20;99.90
53294;DHT22;39181;53.440;5.644;2022-10-16T01:29:56;13.20;99.90
53294;DHT22;39181;53.440;5.644;2022-10-16T01:32:40;13.20;99.90
53294;DHT22;39181;53.440;5.644;2022-10-16T01:35:13;13.20;99.90
53294;DHT22;39181;53.440;5.644;2022-10-16T01:37:48;13.20;99.90
53294;DHT22;39181;53.440;5.644;2022-10-16T01:40:17;13.10;99.90
53294;DHT22;39181;53.440;5.644;2022-10-16T01:43:01;13.10;99.90
53294;DHT22;39181;53.440;5.644;2022-10-16T01:45:30;13.10;99.90
53294;DHT22;39181;53.440;5.644;2022-10-16T01:47:58;13.10;99.90
53294;DHT22;39181;53.440;5.644;2022-10-16T01:50:26;13.00;99.90
53294;DHT22;39181;53.440;5.644;2022-10-16T01:52:53;13.00;99.90
53294;DHT22;39181;53.440;5.644;2022-10-16T01:55:28;13.10;99.90
53294;DHT22;39181;53.440;5.644;2022-10-16T01:57:56;13.00;99.90
53294;DHT22;39181;53.440;5.644;2022-10-16T02:00:23;13.10;99.90
53294;DHT22;39181;53.440;5.644;2022-10-16T02:02:52;13.10;99.90
53294;DHT22;39181;53.440;5.644;2022-10-16T02:05:38;13.10;99.90
53294;DHT22;39181;53.440;5.644;2022-10-16T02:08:04;13.10;99.90
53294;DHT22;39181;53.440;5.644;2022-10-16T02:10:30;13.10;99.90
53294;DHT22;39181;53.440;5.644;2022-10-16T02:13:19;13.10;99.90
53294;DHT22;39181;53.440;5.644;2022-10-16T02:15:47;13.10;99.90
53294;DHT22;39181;53.440;5.644;2022-10-16T02:18:13;13.10;99.90
53294;DHT22;39181;53.440;5.644;2022-10-16T02:20:52;13.10;99.90
53294;DHT22;39181;53.440;5.644;2022-10-16T02:23:35;13.10;99.90
53294;DHT22;39181;53.440;5.644;2022-10-16T02:26:03;13.00;99.90
53294;DHT22;39181;53.440;5.644;2022-10-16T02:28:40;13.00;99.90
53294;DHT22;39181;53.440;5.644;2022-10-16T02:31:10;13.00;99.90
53294;DHT22;39181;53.440;5.644;2022-10-16T02:33:38;13.00;99.90
53294;DHT22;39181;53.440;5.644;2022-10-16T02:36:05;13.00;99.90
53294;DHT22;39181;53.440;5.644;2022-10-16T02:38:32;13.00;99.90
53294;DHT22;39181;53.440;5.644;2022-10-16T02:40:57;13.00;99.90
53294;DHT22;39181;53.440;5.644;2022-10-16T02:43:24;13.00;99.90
53294;DHT22;39181;53.440;5.644;2022-10-16T02:45:50;12.90;99.90
53294;DHT22;39181;53.440;5.644;2022-10-16T02:48:16;13.00;99.90
53294;DHT22;39181;53.440;5.644;2022-10-16T02:50:42;13.00;99.90
53294;DHT22;39181;53.440;5.644;2022-10-16T02:53:07;12.90;99.90
53294;DHT22;39181;53.440;5.644;2022-10-16T02:55:33;13.00;99.90
53294;DHT22;39181;53.440;5.644;2022-10-16T02:57:58;13.00;99.90
53294;DHT22;39181;53.440;5.644;2022-10-16T03:00:24;13.00;99.90
53294;DHT22;39181;53.440;5.644;2022-10-16T03:02:50;13.00;99.90
53294;DHT22;39181;53.440;5.644;2022-10-16T03:05:15;12.90;99.90
53294;DHT22;39181;53.440;5.644;2022-10-16T03:07:41;12.90;99.90
53294;DHT22;39181;53.440;5.644;2022-10-16T03:10:07;12.90;99.90
53294;DHT22;39181;53.440;5.644;2022-10-16T03:12:32;12.80;99.90
53294;DHT22;39181;53.440;5.644;2022-10-16T03:14:58;12.80;99.90
53294;DHT22;39181;53.440;5.644;2022-10-16T03:17:24;12.70;99.90
53294;DHT22;39181;53.440;5.644;2022-10-16T03:19:50;12.70;99.90
53294;DHT22;39181;53.440;5.644;2022-10-16T03:22:16;12.60;99.90
53294;DHT22;39181;53.440;5.644;2022-10-16T03:24:42;12.60;99.90
53294;DHT22;39181;53.440;5.644;2022-10-16T03:27:07;12.60;99.90
53294;DHT22;39181;53.440;5.644;2022-10-16T03:29:33;12.60;99.90
53294;DHT22;39181;53.440;5.644;2022-10-16T03:31:59;12.60;99.90
53294;DHT22;39181;53.440;5.644;2022-10-16T03:34:25;12.70;99.90
53294;DHT22;39181;53.440;5.644;2022-10-16T03:36:51;12.70;99.90
53294;DHT22;39181;53.440;5.644;2022-10-16T03:39:16;12.60;99.90
53294;DHT22;39181;53.440;5.644;2022-10-16T03:41:42;12.70;99.90
53294;DHT22;39181;53.440;5.644;2022-10-16T03:44:08;12.60;99.90
53294;DHT22;39181;53.440;5.644;2022-10-16T03:46:33;12.60;99.90
53294;DHT22;39181;53.440;5.644;2022-10-16T03:48:59;12.60;99.90
53294;DHT22;39181;53.440;5.644;2022-10-16T03:51:24;12.50;99.90
53294;DHT22;39181;53.440;5.644;2022-10-16T03:53:50;12.50;99.90
53294;DHT22;39181;53.440;5.644;2022-10-16T03:56:15;12.40;99.90
53294;DHT22;39181;53.440;5.644;2022-10-16T03:58:41;12.40;99.90
53294;DHT22;39181;53.440;5.644;2022-10-16T04:01:06;12.30;99.90
53294;DHT22;39181;53.440;5.644;2022-10-16T04:03:32;12.30;99.90
53294;DHT22;39181;53.440;5.644;2022-10-16T04:05:58;12.30;99.90
53294;DHT22;39181;53.440;5.644;2022-10-16T04:08:23;12.30;99.90
53294;DHT22;39181;53.440;5.644;2022-10-16T04:10:49;12.30;99.90
53294;DHT22;39181;53.440;5.644;2022-10-16T04:13:14;12.20;99.90
53294;DHT22;39181;53.440;5.644;2022-10-16T04:15:40;12.20;99.90
53294;DHT22;39181;53.440;5.644;2022-10-16T04:18:06;12.20;99.90
53294;DHT22;39181;53.440;5.644;2022-10-16T04:20:33;12.20;99.90
53294;DHT22;39181;53.440;5.644;2022-10-16T04:22:58;12.20;99.90
53294;DHT22;39181;53.440;5.644;2022-10-16T04:25:24;12.20;99.90
53294;DHT22;39181;53.440;5.644;2022-10-16T04:27:49;12.20;99.90
53294;DHT22;39181;53.440;5.644;2022-10-16T04:30:15;12.30;99.90
53294;DHT22;39181;53.440;5.644;2022-10-16T04:32:41;12.30;99.90
53294;DHT22;39181;53.440;5.644;2022-10-16T04:35:07;12.40;99.90
53294;DHT22;39181;53.440;5.644;2022-10-16T04:37:32;12.40;99.90
53294;DHT22;39181;53.440;5.644;2022-10-16T04:39:58;12.30;99.90
53294;DHT22;39181;53.440;5.644;2022-10-16T04:42:23;12.30;99.90
53294;DHT22;39181;53.440;5.644;2022-10-16T04:44:49;12.30;99.90
53294;DHT22;39181;53.440;5.644;2022-10-16T04:47:15;12.40;99.90
53294;DHT22;39181;53.440;5.644;2022-10-16T04:49:40;12.40;99.90
53294;DHT22;39181;53.440;5.644;2022-10-16T04:52:06;12.40;99.90
53294;DHT22;39181;53.440;5.644;2022-10-16T04:54:32;12.40;99.90
53294;DHT22;39181;53.440;5.644;2022-10-16T04:56:57;12.40;99.90
53294;DHT22;39181;53.440;5.644;2022-10-16T04:59:23;12.50;99.90
53294;DHT22;39181;53.440;5.644;2022-10-16T05:01:49;12.50;99.90
53294;DHT22;39181;53.440;5.644;2022-10-16T05:04:15;12.50;99.90
53294;DHT22;39181;53.440;5.644;2022-10-16T05:06:40;12.50;99.90
53294;DHT22;39181;53.440;5.644;2022-10-16T05:09:07;12.50;99.90
53294;DHT22;39181;53.440;5.644;2022-10-16T05:11:32;12.50;99.90
53294;DHT22;39181;53.440;5.644;2022-10-16T05:13:58;12.50;99.90
53294;DHT22;39181;53.440;5.644;2022-10-16T05:16:24;12.50;99.90
53294;DHT22;39181;53.440;5.644;2022-10-16T05:18:51;12.50;99.90
53294;DHT22;39181;53.440;5.644;2022-10-16T05:21:16;12.50;99.90
53294;DHT22;39181;53.440;5.644;2022-10-16T05:23:42;12.50;99.90
53294;DHT22;39181;53.440;5.644;2022-10-16T05:26:08;12.50;99.90
53294;DHT22;39181;53.440;5.644;2022-10-16T05:28:33;12.50;99.90
53294;DHT22;39181;53.440;5.644;2022-10-16T05:30:59;12.60;99.90
53294;DHT22;39181;53.440;5.644;2022-10-16T05:33:25;12.60;99.90
53294;DHT22;39181;53.440;5.644;2022-10-16T05:35:51;12.60;99.90
53294;DHT22;39181;53.440;5.644;2022-10-16T05:38:17;12.60;99.90
53294;DHT22;39181;53.440;5.644;2022-10-16T05:40:44;12.60;99.90
53294;DHT22;39181;53.440;5.644;2022-10-16T05:43:15;12.60;99.90
53294;DHT22;39181;53.440;5.644;2022-10-16T05:45:41;12.60;99.90
53294;DHT22;39181;53.440;5.644;2022-10-16T05:48:06;12.60;99.90
53294;DHT22;39181;53.440;5.644;2022-10-16T05:50:32;12.60;99.90
53294;DHT22;39181;53.440;5.644;2022-10-16T05:52:57;12.60;99.90
53294;DHT22;39181;53.440;5.644;2022-10-16T05:55:23;12.60;99.90
53294;DHT22;39181;53.440;5.644;2022-10-16T05:57:48;12.60;99.90
53294;DHT22;39181;53.440;5.644;2022-10-16T06:00:14;12.60;99.90
53294;DHT22;39181;53.440;5.644;2022-10-16T06:02:39;12.50;99.90
53294;DHT22;39181;53.440;5.644;2022-10-16T06:05:05;12.50;99.90
53294;DHT22;39181;53.440;5.644;2022-10-16T06:07:34;12.40;99.90
53294;DHT22;39181;53.440;5.644;2022-10-16T06:10:00;12.40;99.90
53294;DHT22;39181;53.440;5.644;2022-10-16T06:12:26;12.50;99.90
53294;DHT22;39181;53.440;5.644;2022-10-16T06:14:52;12.40;99.90
53294;DHT22;39181;53.440;5.644;2022-10-16T06:17:18;12.40;99.90
53294;DHT22;39181;53.440;5.644;2022-10-16T06:19:43;12.30;99.90
53294;DHT22;39181;53.440;5.644;2022-10-16T06:22:09;12.30;99.90
53294;DHT22;39181;53.440;5.644;2022-10-16T06:24:37;12.30;99.90
53294;DHT22;39181;53.440;5.644;2022-10-16T06:27:04;12.30;99.90
53294;DHT22;39181;53.440;5.644;2022-10-16T06:29:30;12.30;99.90
53294;DHT22;39181;53.440;5.644;2022-10-16T06:31:55;12.30;99.90
53294;DHT22;39181;53.440;5.644;2022-10-16T06:34:21;12.30;99.90
53294;DHT22;39181;53.440;5.644;2022-10-16T06:36:46;12.30;99.90
53294;DHT22;39181;53.440;5.644;2022-10-16T06:39:12;12.30;99.90
53294;DHT22;39181;53.440;5.644;2022-10-16T06:41:37;12.30;99.90
53294;DHT22;39181;53.440;5.644;2022-10-16T06:44:06;12.30;99.90
53294;DHT22;39181;53.440;5.644;2022-10-16T06:46:33;12.40;99.90
53294;DHT22;39181;53.440;5.644;2022-10-16T06:48:59;12.30;99.90
53294;DHT22;39181;53.440;5.644;2022-10-16T06:51:25;12.30;99.90
53294;DHT22;39181;53.440;5.644;2022-10-16T06:53:52;12.40;99.90
53294;DHT22;39181;53.440;5.644;2022-10-16T06:56:19;12.40;99.90
53294;DHT22;39181;53.440;5.644;2022-10-16T06:58:46;12.50;99.90
53294;DHT22;39181;53.440;5.644;2022-10-16T07:01:12;12.50;99.90
53294;DHT22;39181;53.440;5.644;2022-10-16T07:03:40;12.50;99.90
53294;DHT22;39181;53.440;5.644;2022-10-16T07:06:07;12.50;99.90
53294;DHT22;39181;53.440;5.644;2022-10-16T07:08:34;12.50;99.90
53294;DHT22;39181;53.440;5.644;2022-10-16T07:11:01;12.50;99.90
53294;DHT22;39181;53.440;5.644;2022-10-16T07:13:28;12.60;99.90
53294;DHT22;39181;53.440;5.644;2022-10-16T07:15:54;12.60;99.90
53294;DHT22;39181;53.440;5.644;2022-10-16T07:18:19;12.60;99.90
53294;DHT22;39181;53.440;5.644;2022-10-16T07:20:45;12.70;99.90
53294;DHT22;39181;53.440;5.644;2022-10-16T07:23:11;12.70;99.90
53294;DHT22;39181;53.440;5.644;2022-10-16T07:25:36;12.80;99.90
53294;DHT22;39181;53.440;5.644;2022-10-16T07:28:02;12.80;99.90
53294;DHT22;39181;53.440;5.644;2022-10-16T07:30:27;12.90;99.90
53294;DHT22;39181;53.440;5.644;2022-10-16T07:32:53;12.90;99.90
53294;DHT22;39181;53.440;5.644;2022-10-16T07:35:18;12.90;99.90
53294;DHT22;39181;53.440;5.644;2022-10-16T07:37:45;12.90;99.90
53294;DHT22;39181;53.440;5.644;2022-10-16T07:40:11;13.00;99.90
53294;DHT22;39181;53.440;5.644;2022-10-16T07:42:37;13.20;99.90
53294;DHT22;39181;53.440;5.644;2022-10-16T07:45:02;13.30;99.90
53294;DHT22;39181;53.440;5.644;2022-10-16T07:47:28;13.40;99.90
53294;DHT22;39181;53.440;5.644;2022-10-16T07:49:53;13.50;99.90
53294;DHT22;39181;53.440;5.644;2022-10-16T07:52:19;13.60;99.90
53294;DHT22;39181;53.440;5.644;2022-10-16T07:54:45;13.70;99.90
53294;DHT22;39181;53.440;5.644;2022-10-16T07:57:10;13.80;99.90
53294;DHT22;39181;53.440;5.644;2022-10-16T07:59:36;14.00;99.90
53294;DHT22;39181;53.440;5.644;2022-10-16T08:02:01;14.00;99.90
53294;DHT22;39181;53.440;5.644;2022-10-16T08:04:27;14.00;99.90
53294;DHT22;39181;53.440;5.644;2022-10-16T08:06:52;14.00;99.90
53294;DHT22;39181;53.440;5.644;2022-10-16T08:09:19;14.10;99.90
53294;DHT22;39181;53.440;5.644;2022-10-16T08:11:45;14.20;99.90
53294;DHT22;39181;53.440;5.644;2022-10-16T08:14:10;14.20;99.90
53294;DHT22;39181;53.440;5.644;2022-10-16T08:16:36;14.20;99.90
53294;DHT22;39181;53.440;5.644;2022-10-16T08:19:01;14.30;99.90
53294;DHT22;39181;53.440;5.644;2022-10-16T08:21:27;14.30;99.90
53294;DHT22;39181;53.440;5.644;2022-10-16T08:23:53;14.20;99.90
53294;DHT22;39181;53.440;5.644;2022-10-16T08:26:20;14.20;99.90
53294;DHT22;39181;53.440;5.644;2022-10-16T08:28:49;14.20;99.90
53294;DHT22;39181;53.440;5.644;2022-10-16T08:31:16;14.10;99.90
53294;DHT22;39181;53.440;5.644;2022-10-16T08:33:43;14.10;99.90
53294;DHT22;39181;53.440;5.644;2022-10-16T08:36:10;14.20;99.90
53294;DHT22;39181;53.440;5.644;2022-10-16T08:38:36;14.20;99.90
53294;DHT22;39181;53.440;5.644;2022-10-16T08:41:48;14.30;99.90
53294;DHT22;39181;53.440;5.644;2022-10-16T08:44:21;14.40;99.90
53294;DHT22;39181;53.440;5.644;2022-10-16T08:49:30;14.50;99.90
53294;DHT22;39181;53.440;5.644;2022-10-16T08:51:56;14.40;99.90
53294;DHT22;39181;53.440;5.644;2022-10-16T08:54:36;14.40;99.90
53294;DHT22;39181;53.440;5.644;2022-10-16T08:57:20;14.30;99.90
53294;DHT22;39181;53.440;5.644;2022-10-16T08:59:46;14.10;99.90
53294;DHT22;39181;53.440;5.644;2022-10-16T09:05:02;14.00;99.90
53294;DHT22;39181;53.440;5.644;2022-10-16T09:07:33;14.00;99.90
53294;DHT22;39181;53.440;5.644;2022-10-16T09:10:22;14.00;99.90
53294;DHT22;39181;53.440;5.644;2022-10-16T09:13:01;14.10;99.90
53294;DHT22;39181;53.440;5.644;2022-10-16T09:16:05;14.20;99.90
53294;DHT22;39181;53.440;5.644;2022-10-16T09:18:48;14.30;99.90
53294;DHT22;39181;53.440;5.644;2022-10-16T09:22:04;14.50;99.90
53294;DHT22;39181;53.440;5.644;2022-10-16T09:24:18;14.60;99.90
53294;DHT22;39181;53.440;5.644;2022-10-16T09:26:44;14.70;99.90
53294;DHT22;39181;53.440;5.644;2022-10-16T09:29:18;14.80;99.90
53294;DHT22;39181;53.440;5.644;2022-10-16T09:31:47;14.90;99.90
53294;DHT22;39181;53.440;5.644;2022-10-16T09:34:36;15.00;99.90
53294;DHT22;39181;53.440;5.644;2022-10-16T09:37:10;15.10;99.90
53294;DHT22;39181;53.440;5.644;2022-10-16T09:39:51;15.10;99.90
53294;DHT22;39181;53.440;5.644;2022-10-16T09:42:23;15.20;99.90
53294;DHT22;39181;53.440;5.644;2022-10-16T09:44:51;15.20;99.90
53294;DHT22;39181;53.440;5.644;2022-10-16T09:47:25;15.30;99.90
53294;DHT22;39181;53.440;5.644;2022-10-16T09:50:03;15.30;99.90
53294;DHT22;39181;53.440;5.644;2022-10-16T09:52:32;15.40;99.90
53294;DHT22;39181;53.440;5.644;2022-10-16T09:55:01;15.30;99.90
53294;DHT22;39181;53.440;5.644;2022-10-16T09:57:27;15.30;99.90
53294;DHT22;39181;53.440;5.644;2022-10-16T09:59:54;15.40;99.90
53294;DHT22;39181;53.440;5.644;2022-10-16T10:02:32;15.50;99.90
53294;DHT22;39181;53.440;5.644;2022-10-16T10:04:59;15.50;99.90
53294;DHT22;39181;53.440;5.644;2022-10-16T10:07:27;15.50;99.90
53294;DHT22;39181;53.440;5.644;2022-10-16T10:09:54;15.50;99.90
53294;DHT22;39181;53.440;5.644;2022-10-16T10:12:21;15.60;99.90
53294;DHT22;39181;53.440;5.644;2022-10-16T10:14:49;15.60;99.90
53294;DHT22;39181;53.440;5.644;2022-10-16T10:17:21;15.60;99.90
53294;DHT22;39181;53.440;5.644;2022-10-16T10:22:42;15.60;99.90
53294;DHT22;39181;53.440;5.644;2022-10-16T10:25:14;15.70;99.90
53294;DHT22;39181;53.440;5.644;2022-10-16T10:27:53;15.80;99.90
53294;DHT22;39181;53.440;5.644;2022-10-16T10:38:50;15.90;99.90
53294;DHT22;39181;53.440;5.644;2022-10-16T10:41:30;15.90;99.90
53294;DHT22;39181;53.440;5.644;2022-10-16T10:46:56;16.00;99.90
53294;DHT22;39181;53.440;5.644;2022-10-16T10:49:39;16.00;99.90
53294;DHT22;39181;53.440;5.644;2022-10-16T11:01:14;16.00;99.90
53294;DHT22;39181;53.440;5.644;2022-10-16T11:04:10;16.10;99.90
53294;DHT22;39181;53.440;5.644;2022-10-16T11:06:47;16.20;99.90
53294;DHT22;39181;53.440;5.644;2022-10-16T11:09:24;16.20;99.90
53294;DHT22;39181;53.440;5.644;2022-10-16T11:12:07;16.40;99.90
53294;DHT22;39181;53.440;5.644;2022-10-16T11:14:42;16.30;99.90
53294;DHT22;39181;53.440;5.644;2022-10-16T11:17:22;16.30;99.90
53294;DHT22;39181;53.440;5.644;2022-10-16T11:20:25;16.40;99.90
53294;DHT22;39181;53.440;5.644;2022-10-16T11:23:04;16.40;99.90
53294;DHT22;39181;53.440;5.644;2022-10-16T11:25:33;16.40;99.90
53294;DHT22;39181;53.440;5.644;2022-10-16T11:28:23;16.50;99.90
53294;DHT22;39181;53.440;5.644;2022-10-16T11:31:08;16.40;99.90
53294;DHT22;39181;53.440;5.644;2022-10-16T11:33:45;16.50;99.90
53294;DHT22;39181;53.440;5.644;2022-10-16T11:49:45;16.50;99.90
53294;DHT22;39181;53.440;5.644;2022-10-16T11:52:40;16.60;99.90
53294;DHT22;39181;53.440;5.644;2022-10-16T11:55:22;16.60;99.90
53294;DHT22;39181;53.440;5.644;2022-10-16T11:57:56;16.60;99.90
53294;DHT22;39181;53.440;5.644;2022-10-16T12:01:28;16.70;99.90
53294;DHT22;39181;53.440;5.644;2022-10-16T12:03:48;16.70;99.90
53294;DHT22;39181;53.440;5.644;2022-10-16T12:06:40;16.60;99.90
53294;DHT22;39181;53.440;5.644;2022-10-16T12:09:25;16.60;99.90
53294;DHT22;39181;53.440;5.644;2022-10-16T12:11:51;16.70;99.90
53294;DHT22;39181;53.440;5.644;2022-10-16T12:14:36;16.70;99.90
53294;DHT22;39181;53.440;5.644;2022-10-16T12:17:03;16.70;99.90
53294;DHT22;39181;53.440;5.644;2022-10-16T12:19:32;16.70;99.90
53294;DHT22;39181;53.440;5.644;2022-10-16T12:22:00;16.70;99.90
53294;DHT22;39181;53.440;5.644;2022-10-16T12:24:41;16.70;99.90
53294;DHT22;39181;53.440;5.644;2022-10-16T12:27:31;16.70;99.90
53294;DHT22;39181;53.440;5.644;2022-10-16T12:30:03;16.50;99.90
53294;DHT22;39181;53.440;5.644;2022-10-16T12:32:37;16.60;99.90
53294;DHT22;39181;53.440;5.644;2022-10-16T12:35:16;16.60;99.90
53294;DHT22;39181;53.440;5.644;2022-10-16T12:37:42;16.60;99.90
53294;DHT22;39181;53.440;5.644;2022-10-16T12:40:27;16.60;99.90
53294;DHT22;39181;53.440;5.644;2022-10-16T12:42:54;16.60;99.90
53294;DHT22;39181;53.440;5.644;2022-10-16T12:45:28;16.50;99.90
53294;DHT22;39181;53.440;5.644;2022-10-16T12:47:55;16.40;99.90
53294;DHT22;39181;53.440;5.644;2022-10-16T12:50:36;16.40;99.90
53294;DHT22;39181;53.440;5.644;2022-10-16T12:53:19;16.30;99.90
53294;DHT22;39181;53.440;5.644;2022-10-16T12:56:02;16.30;99.90
53294;DHT22;39181;53.440;5.644;2022-10-16T13:01:42;16.20;99.90
53294;DHT22;39181;53.440;5.644;2022-10-16T13:06:54;16.20;99.90
53294;DHT22;39181;53.440;5.644;2022-10-16T13:18:25;16.00;99.90
53294;DHT22;39181;53.440;5.644;2022-10-16T13:21:56;15.80;99.90
53294;DHT22;39181;53.440;5.644;2022-10-16T13:23:56;15.80;99.90
53294;DHT22;39181;53.440;5.644;2022-10-16T13:26:40;15.80;99.90
53294;DHT22;39181;53.440;5.644;2022-10-16T13:29:06;15.70;99.90
53294;DHT22;39181;53.440;5.644;2022-10-16T13:31:32;15.60;99.90
53294;DHT22;39181;53.440;5.644;2022-10-16T13:34:00;15.60;99.90
53294;DHT22;39181;53.440;5.644;2022-10-16T13:36:28;15.60;99.90
53294;DHT22;39181;53.440;5.644;2022-10-16T13:39:15;15.50;99.90
53294;DHT22;39181;53.440;5.644;2022-10-16T13:41:43;15.50;99.90
53294;DHT22;39181;53.440;5.644;2022-10-16T13:44:15;15.50;99.90
53294;DHT22;39181;53.440;5.644;2022-10-16T13:46:43;15.40;99.90
53294;DHT22;39181;53.440;5.644;2022-10-16T13:49:14;15.30;99.90
53294;DHT22;39181;53.440;5.644;2022-10-16T13:51:40;15.30;99.90
53294;DHT22;39181;53.440;5.644;2022-10-16T13:54:09;15.30;99.90
53294;DHT22;39181;53.440;5.644;2022-10-16T13:56:36;15.30;99.90
53294;DHT22;39181;53.440;5.644;2022-10-16T13:59:06;15.20;99.90
53294;DHT22;39181;53.440;5.644;2022-10-16T14:01:47;15.10;99.90
53294;DHT22;39181;53.440;5.644;2022-10-16T14:04:13;15.10;99.90
53294;DHT22;39181;53.440;5.644;2022-10-16T14:06:45;15.10;99.90
53294;DHT22;39181;53.440;5.644;2022-10-16T14:09:23;15.00;99.90
53294;DHT22;39181;53.440;5.644;2022-10-16T14:11:54;15.00;99.90
53294;DHT22;39181;53.440;5.644;2022-10-16T14:14:21;15.00;99.90
53294;DHT22;39181;53.440;5.644;2022-10-16T14:16:48;14.90;99.90
53294;DHT22;39181;53.440;5.644;2022-10-16T14:19:22;14.90;99.90
53294;DHT22;39181;53.440;5.644;2022-10-16T14:21:50;14.90;99.90
53294;DHT22;39181;53.440;5.644;2022-10-16T14:26:57;14.80;99.90
53294;DHT22;39181;53.440;5.644;2022-10-16T14:29:23;14.80;99.90
53294;DHT22;39181;53.440;5.644;2022-10-16T14:31:58;14.60;99.90
53294;DHT22;39181;53.440;5.644;2022-10-16T14:34:26;14.70;99.90
53294;DHT22;39181;53.440;5.644;2022-10-16T14:36:53;14.60;99.90
53294;DHT22;39181;53.440;5.644;2022-10-16T14:39:23;14.60;99.90
53294;DHT22;39181;53.440;5.644;2022-10-16T14:41:52;14.50;99.90
53294;DHT22;39181;53.440;5.644;2022-10-16T14:44:18;14.50;99.90
53294;DHT22;39181;53.440;5.644;2022-10-16T14:46:45;14.50;99.90
53294;DHT22;39181;53.440;5.644;2022-10-16T14:51:38;14.40;99.90
53294;DHT22;39181;53.440;5.644;2022-10-16T14:54:08;14.30;99.90
53294;DHT22;39181;53.440;5.644;2022-10-16T14:56:51;14.30;99.90
53294;DHT22;39181;53.440;5.644;2022-10-16T14:59:35;14.20;99.90
53294;DHT22;39181;53.440;5.644;2022-10-16T15:04:45;14.30;99.90
53294;DHT22;39181;53.440;5.644;2022-10-16T15:07:11;14.20;99.90
53294;DHT22;39181;53.440;5.644;2022-10-16T15:09:36;14.10;99.90
53294;DHT22;39181;53.440;5.644;2022-10-16T15:12:02;14.10;99.90
53294;DHT22;39181;53.440;5.644;2022-10-16T15:14:27;14.10;99.90
53294;DHT22;39181;53.440;5.644;2022-10-16T15:16:53;14.00;99.90
53294;DHT22;39181;53.440;5.644;2022-10-16T15:19:18;14.00;99.90
53294;DHT22;39181;53.440;5.644;2022-10-16T15:21:44;13.90;99.90
53294;DHT22;39181;53.440;5.644;2022-10-16T15:24:12;13.90;99.90
53294;DHT22;39181;53.440;5.644;2022-10-16T15:26:38;13.90;99.90
53294;DHT22;39181;53.440;5.644;2022-10-16T15:29:04;13.80;99.90
53294;DHT22;39181;53.440;5.644;2022-10-16T15:31:31;13.80;99.90
53294;DHT22;39181;53.440;5.644;2022-10-16T15:33:56;13.80;99.90
53294;DHT22;39181;53.440;5.644;2022-10-16T15:36:31;13.80;99.90
53294;DHT22;39181;53.440;5.644;2022-10-16T15:38:59;13.80;99.90
53294;DHT22;39181;53.440;5.644;2022-10-16T15:41:25;13.70;99.90
53294;DHT22;39181;53.440;5.644;2022-10-16T15:43:51;13.70;99.90
53294;DHT22;39181;53.440;5.644;2022-10-16T15:46:19;13.70;99.90
53294;DHT22;39181;53.440;5.644;2022-10-16T15:48:45;13.70;99.90
53294;DHT22;39181;53.440;5.644;2022-10-16T15:51:11;13.60;99.90
53294;DHT22;39181;53.440;5.644;2022-10-16T15:53:36;13.60;99.90
53294;DHT22;39181;53.440;5.644;2022-10-16T15:56:03;13.50;99.90
53294;DHT22;39181;53.440;5.644;2022-10-16T15:58:29;13.50;99.90
53294;DHT22;39181;53.440;5.644;2022-10-16T16:00:56;13.50;99.90
53294;DHT22;39181;53.440;5.644;2022-10-16T16:03:25;13.50;99.90
53294;DHT22;39181;53.440;5.644;2022-10-16T16:05:51;13.40;99.90
53294;DHT22;39181;53.440;5.644;2022-10-16T16:08:16;13.40;99.90
53294;DHT22;39181;53.440;5.644;2022-10-16T16:10:42;13.30;99.90
53294;DHT22;39181;53.440;5.644;2022-10-16T16:13:07;13.30;99.90
53294;DHT22;39181;53.440;5.644;2022-10-16T16:15:33;13.20;99.90
53294;DHT22;39181;53.440;5.644;2022-10-16T16:17:58;13.20;99.90
53294;DHT22;39181;53.440;5.644;2022-10-16T16:20:25;13.20;99.90
53294;DHT22;39181;53.440;5.644;2022-10-16T16:22:51;13.10;99.90
53294;DHT22;39181;53.440;5.644;2022-10-16T16:25:17;13.10;99.90
53294;DHT22;39181;53.440;5.644;2022-10-16T16:27:42;13.00;99.90
53294;DHT22;39181;53.440;5.644;2022-10-16T16:30:10;12.90;99.90
53294;DHT22;39181;53.440;5.644;2022-10-16T16:32:36;12.90;99.90
53294;DHT22;39181;53.440;5.644;2022-10-16T16:35:03;12.90;99.90
53294;DHT22;39181;53.440;5.644;2022-10-16T16:37:29;12.80;99.90
53294;DHT22;39181;53.440;5.644;2022-10-16T16:39:54;12.80;99.90
53294;DHT22;39181;53.440;5.644;2022-10-16T16:42:24;12.70;99.90
53294;DHT22;39181;53.440;5.644;2022-10-16T16:44:50;12.70;99.90
53294;DHT22;39181;53.440;5.644;2022-10-16T16:47:16;12.60;99.90
53294;DHT22;39181;53.440;5.644;2022-10-16T16:49:41;12.60;99.90
53294;DHT22;39181;53.440;5.644;2022-10-16T16:52:07;12.50;99.90
53294;DHT22;39181;53.440;5.644;2022-10-16T16:54:32;12.50;99.90
53294;DHT22;39181;53.440;5.644;2022-10-16T16:56:58;12.50;99.90
53294;DHT22;39181;53.440;5.644;2022-10-16T16:59:23;12.40;99.90